Time;durP1;ratioP1;P1;durP2;ratioP2;P2;SDS_P1;SDS_P2;PMS_P1;PMS_P2;Temp;Humidity;BMP_temperature;BMP_pressure;BME280_temperature;BME280_humidity;BME280_pressure;Samples;Min_cycle;Max_cycle;Signal;HPM_P1;HPM_P2
2023/05/29 06:47:48;;;;;;;2.90;2.70;;;36.30;16.30;;;;;;4881193;29;20217;-77
2023/05/29 06:50:15;;;;;;;2.60;2.50;;;;;;;;;;4881772;29;20210;-77
2023/05/29 06:52:42;;;;;;;2.95;2.70;;;38.20;28.40;;;;;;4882640;29;20380;-77
2023/05/29 06:55:09;;;;;;;3.55;3.35;;;38.60;18.00;;;;;;4882976;29;20229;-77
2023/05/29 06:57:36;;;;;;;2.75;2.60;;;38.90;12.40;;;;;;4886846;29;20291;-79
2023/05/29 07:00:03;;;;;;;3.72;3.40;;;39.30;12.30;;;;;;4887015;29;20210;-81
2023/05/29 07:02:30;;;;;;;3.22;2.53;;;;;;;;;;4881341;29;20521;-70
2023/05/29 07:04:58;;;;;;;2.80;2.60;;;39.40;11.30;;;;;;4880535;29;20740;-69
2023/05/29 07:07:25;;;;;;;3.78;2.65;;;39.90;11.80;;;;;;4880727;29;20217;-70
2023/05/29 07:09:52;;;;;;;2.97;2.78;;;39.70;12.00;;;;;;4879815;29;20209;-71
2023/05/29 07:12:18;;;;;;;2.72;2.60;;;39.40;11.70;;;;;;4880361;29;20572;-70
2023/05/29 07:14:47;;;;;;;2.90;2.70;;;39.60;12.10;;;;;;4880475;29;20282;-70
2023/05/29 07:17:14;;;;;;;3.25;3.05;;;39.60;11.80;;;;;;4880149;29;20210;-70
2023/05/29 07:19:41;;;;;;;2.60;2.50;;;39.10;11.80;;;;;;4880409;29;20687;-70
2023/05/29 07:22:09;;;;;;;3.15;2.95;;;38.40;11.60;;;;;;4880428;29;20202;-70
2023/05/29 07:24:36;;;;;;;2.33;2.22;;;37.50;13.10;;;;;;4880175;29;20261;-71
2023/05/29 07:27:03;;;;;;;2.70;2.50;;;37.20;13.20;;;;;;4880413;29;20206;-71
2023/05/29 07:29:30;;;;;;;2.95;2.72;;;37.00;13.60;;;;;;4880524;29;20206;-71
2023/05/29 07:31:56;;;;;;;3.38;3.08;;;36.70;13.40;;;;;;4880350;29;20209;-71
2023/05/29 07:34:23;;;;;;;3.20;3.00;;;36.10;13.60;;;;;;4880208;29;20222;-73
2023/05/29 07:37:02;;;;;;;3.22;2.92;;;35.80;13.70;;;;;;4880095;29;20210;-72
2023/05/29 07:39:30;;;;;;;4.10;3.10;;;35.50;14.40;;;;;;4880129;29;20560;-71
2023/05/29 07:41:57;;;;;;;3.00;2.70;;;35.10;14.50;;;;;;4880154;29;20578;-71
2023/05/29 07:44:23;;;;;;;2.88;2.63;;;34.70;14.30;;;;;;4879961;29;20226;-68
2023/05/29 07:46:50;;;;;;;4.15;3.30;;;34.80;14.30;;;;;;4879788;29;20202;-69
2023/05/29 07:49:17;;;;;;;3.25;3.05;;;34.80;14.90;;;;;;4879759;29;20202;-71
2023/05/29 07:51:43;;;;;;;3.40;3.08;;;34.70;15.40;;;;;;4879821;29;20259;-68
2023/05/29 07:54:10;;;;;;;4.47;4.07;;;34.50;14.60;;;;;;4879488;29;20210;-71
2023/05/29 07:56:40;;;;;;;3.22;3.03;;;33.90;15.30;;;;;;4879519;29;20214;-71
2023/05/29 07:59:08;;;;;;;3.60;3.30;;;33.50;15.70;;;;;;4879727;29;20268;-71
2023/05/29 08:01:35;;;;;;;;;;;33.30;14.70;;;;;;4879928;29;20202;-68
2023/05/29 08:04:01;;;;;;;;;;;32.50;16.20;;;;;;4880237;29;19927;-70
2023/05/29 08:06:28;;;;;;;;;;;31.90;16.10;;;;;;4880059;29;20376;-70
2023/05/29 08:08:54;;;;;;;;;;;30.50;16.50;;;;;;4880327;29;19931;-70
2023/05/29 08:11:22;;;;;;;;;;;29.40;17.50;;;;;;4880073;29;19934;-70
2023/05/29 08:13:50;;;;;;;;;;;28.50;18.40;;;;;;4880269;29;19924;-71
2023/05/29 08:16:16;;;;;;;4.47;3.80;;;27.50;19.60;;;;;;4879780;29;20505;-72
2023/05/29 08:18:43;;;;;;;3.17;2.97;;;26.80;20.60;;;;;;4879747;29;20205;-72
2023/05/29 08:21:11;;;;;;;2.95;2.65;;;26.40;21.30;;;;;;4879387;29;20221;-72
2023/05/29 08:23:38;;;;;;;7.68;3.80;;;25.80;21.40;;;;;;4879643;29;20222;-71
2023/05/29 08:26:05;;;;;;;7.75;4.25;;;25.00;32.60;;;;;;4880355;29;20229;-73
2023/05/29 08:28:32;;;;;;;3.40;3.10;;;24.40;22.20;;;;;;4879611;29;20203;-72
2023/05/29 08:31:00;;;;;;;3.67;3.13;;;23.90;22.70;;;;;;4879469;29;20233;-71
2023/05/29 08:33:26;;;;;;;4.00;3.30;;;23.60;23.10;;;;;;4879696;29;20206;-72
2023/05/29 08:35:53;;;;;;;3.35;3.05;;;23.40;23.50;;;;;;4879934;29;20226;-72
2023/05/29 08:38:20;;;;;;;5.95;3.92;;;23.30;24.10;;;;;;4879617;29;20207;-71
2023/05/29 08:40:48;;;;;;;5.97;4.03;;;23.00;23.90;;;;;;4882562;29;20254;-70
2023/05/29 08:43:18;;;;;;;5.95;3.63;;;22.90;24.10;;;;;;4882578;29;20226;-73
2023/05/29 08:45:46;;;;;;;5.43;4.10;;;22.60;24.40;;;;;;4883915;29;20237;-72
2023/05/29 08:48:15;;;;;;;4.00;3.58;;;22.50;24.90;;;;;;4880584;29;20623;-70
2023/05/29 08:50:46;;;;;;;6.22;3.75;;;22.50;24.70;;;;;;4879328;29;20213;-68
2023/05/29 08:53:14;;;;;;;7.03;4.82;;;22.30;25.10;;;;;;4879546;29;20207;-68
2023/05/29 08:55:41;;;;;;;4.07;3.60;;;22.20;25.00;;;;;;4880131;29;20245;-69
2023/05/29 08:58:08;;;;;;;4.88;3.85;;;22.10;25.60;;;;;;4879656;29;20210;-69
2023/05/29 09:00:35;;;;;;;5.85;3.13;;;21.90;25.30;;;;;;4879393;29;20206;-69
2023/05/29 09:03:02;;;;;;;3.90;3.50;;;22.00;25.90;;;;;;4879209;29;20206;-69
2023/05/29 09:05:32;;;;;;;5.60;4.05;;;21.90;25.30;;;;;;4879366;29;20226;-69
2023/05/29 09:07:59;;;;;;;4.97;4.15;;;21.80;24.80;;;;;;4879448;29;20190;-70
2023/05/29 09:10:27;;;;;;;4.80;3.70;;;21.60;24.70;;;;;;4879376;29;20756;-70
2023/05/29 09:12:53;;;;;;;4.40;3.72;;;21.60;25.20;;;;;;4879575;29;20285;-70
2023/05/29 09:15:22;;;;;;;4.65;3.80;;;21.60;25.00;;;;;;4879451;29;20226;-69
2023/05/29 09:17:52;;;;;;;7.30;4.20;;;21.60;24.80;;;;;;4879178;29;20301;-68
2023/05/29 09:20:23;;;;;;;4.15;3.30;;;21.50;24.60;;;;;;4880154;29;20666;-69
2023/05/29 09:23:02;;;;;;;3.83;3.53;;;21.40;24.90;;;;;;4880329;29;20199;-69
2023/05/29 09:25:31;;;;;;;4.22;3.80;;;21.40;24.80;;;;;;4878858;29;20671;-69
2023/05/29 09:28:00;;;;;;;5.45;3.83;;;21.40;24.40;;;;;;4879261;29;20233;-68
2023/05/29 09:30:38;;;;;;;5.35;4.13;;;21.30;24.30;;;;;;4878892;29;20238;-69
2023/05/29 09:33:06;;;;;;;5.38;4.15;;;21.20;24.40;;;;;;4881133;29;20194;-69
2023/05/29 09:35:35;;;;;;;5.20;4.22;;;21.20;24.40;;;;;;4882227;29;20226;-69
2023/05/29 09:38:03;;;;;;;7.00;3.63;;;21.20;23.80;;;;;;4882623;29;20206;-68
2023/05/29 09:40:34;;;;;;;5.00;3.65;;;21.20;24.40;;;;;;4882752;29;20213;-68
2023/05/29 09:43:10;;;;;;;9.65;4.38;;;21.30;24.50;;;;;;4882356;29;20209;-68
2023/05/29 09:45:39;;;;;;;4.28;3.50;;;21.30;23.70;;;;;;4882539;29;20222;-66
2023/05/29 09:48:07;;;;;;;4.55;3.85;;;21.30;23.70;;;;;;4882169;29;20218;-67
2023/05/29 09:50:35;;;;;;;5.80;4.00;;;21.30;23.70;;;;;;4882379;29;20242;-68
2023/05/29 09:53:03;;;;;;;4.43;3.58;;;21.20;23.00;;;;;;4882135;29;20217;-68
2023/05/29 09:55:33;;;;;;;6.05;4.00;;;21.20;22.70;;;;;;4882181;29;20226;-68
2023/05/29 09:58:01;;;;;;;4.50;3.60;;;21.20;23.60;;;;;;4882292;29;20315;-68
2023/05/29 10:00:30;;;;;;;4.88;3.88;;;21.30;23.40;;;;;;4882186;29;20206;-68
2023/05/29 10:02:57;;;;;;;6.57;3.67;;;21.30;23.90;;;;;;4882049;29;20210;-68
2023/05/29 10:05:25;;;;;;;4.90;3.67;;;21.30;23.20;;;;;;4881901;29;20238;-68
2023/05/29 10:07:55;;;;;;;6.18;3.38;;;21.30;23.50;;;;;;4882219;29;20210;-68
2023/05/29 10:10:27;;;;;;;6.28;4.07;;;21.30;23.70;;;;;;4882011;29;20191;-69
2023/05/29 10:12:55;;;;;;;5.18;3.88;;;21.20;23.30;;;;;;4882171;29;20225;-69
2023/05/29 10:15:29;;;;;;;4.22;3.42;;;21.20;23.90;;;;;;4882461;29;20665;-68
2023/05/29 10:18:01;;;;;;;3.88;3.45;;;21.20;24.40;;;;;;4881949;29;20277;-68
2023/05/29 10:20:29;;;;;;;3.63;3.05;;;21.20;24.40;;;;;;4881988;29;20563;-69
2023/05/29 10:22:59;;;;;;;6.93;3.67;;;21.20;24.40;;;;;;4881812;29;20210;-69
2023/05/29 10:25:28;;;;;;;3.55;3.22;;;21.20;24.50;;;;;;4881455;29;20639;-68
2023/05/29 10:27:56;;;;;;;4.03;2.97;;;21.20;23.30;;;;;;4881444;29;20709;-69
2023/05/29 10:30:31;;;;;;;4.07;3.50;;;21.20;22.70;;;;;;4881802;29;20243;-69
2023/05/29 10:33:12;;;;;;;5.20;3.55;;;21.20;23.90;;;;;;4882073;29;20193;-69
2023/05/29 10:35:47;;;;;;;4.47;3.40;;;21.20;24.40;;;;;;4881410;29;20255;-70
2023/05/29 10:38:16;;;;;;;4.38;2.97;;;21.20;23.30;;;;;;4881525;29;20194;-70
2023/05/29 10:40:45;;;;;;;4.40;3.10;;;21.20;23.20;;;;;;4882162;29;20301;-70
2023/05/29 10:43:32;;;;;;;6.95;4.20;;;21.20;24.40;;;;;;4882253;29;20539;-70
2023/05/29 10:45:59;;;;;;;5.15;3.67;;;21.20;25.30;;;;;;4881624;29;20230;-70
2023/05/29 10:48:45;;;;;;;3.60;3.30;;;21.30;25.10;;;;;;4881309;29;20226;-70
2023/05/29 10:51:28;;;;;;;4.75;3.38;;;21.20;24.40;;;;;;4881237;29;20222;-70
2023/05/29 10:53:55;;;;;;;4.80;3.45;;;21.20;24.00;;;;;;4881226;29;20578;-69
2023/05/29 10:56:29;;;;;;;4.03;3.63;;;21.20;24.00;;;;;;4881080;29;20222;-70
2023/05/29 10:59:00;;;;;;;4.60;3.67;;;21.20;24.40;;;;;;4881021;29;20205;-70
2023/05/29 11:01:29;;;;;;;4.50;3.60;;;21.10;24.30;;;;;;4881216;29;20229;-71
2023/05/29 11:04:27;;;;;;;4.03;3.35;;;21.10;24.30;;;;;;4881505;29;20292;-70
2023/05/29 11:06:53;;;;;;;4.70;3.85;;;21.10;24.90;;;;;;4880501;29;20753;-70
2023/05/29 11:09:28;;;;;;;3.30;3.00;;;21.10;24.30;;;;;;4880870;29;20674;-70
2023/05/29 11:12:12;;;;;;;3.53;3.13;;;21.10;24.30;;;;;;4880795;29;20198;-69
2023/05/29 11:14:46;;;;;;;4.97;3.65;;;21.10;23.70;;;;;;4880994;29;20230;-66
2023/05/29 11:17:32;;;;;;;3.53;3.20;;;21.20;24.40;;;;;;4880735;29;20254;-66
2023/05/29 11:20:05;;;;;;;4.82;3.47;;;21.20;23.40;;;;;;4880892;29;20191;-66
2023/05/29 11:22:47;;;;;;;4.07;3.33;;;21.10;23.20;;;;;;4881289;29;20195;-67
2023/05/29 11:25:15;;;;;;;3.38;3.00;;;21.10;23.00;;;;;;4880523;29;20226;-70
2023/05/29 11:27:44;;;;;;;3.90;3.47;;;21.20;22.70;;;;;;4880816;29;20221;-67
2023/05/29 11:30:12;;;;;;;5.20;3.20;;;21.30;22.70;;;;;;4880601;29;20293;-67
2023/05/29 11:32:41;;;;;;;4.85;3.30;;;21.20;23.30;;;;;;4880402;29;20573;-66
2023/05/29 11:35:09;;;;;;;4.72;3.10;;;21.30;24.20;;;;;;4880601;29;20222;-69
2023/05/29 11:37:36;;;;;;;4.72;3.15;;;21.30;24.50;;;;;;4881013;29;20214;-67
2023/05/29 11:40:05;;;;;;;4.55;2.70;;;21.30;24.50;;;;;;4880631;29;20217;-67
2023/05/29 11:42:32;;;;;;;5.55;3.05;;;21.30;23.00;;;;;;4880881;29;20201;-67
2023/05/29 11:45:12;;;;;;;2.78;2.58;;;21.30;21.90;;;;;;4880766;29;20240;-67
2023/05/29 11:47:52;;;;;;;3.17;2.78;;;21.30;21.00;;;;;;4880557;29;20674;-69
2023/05/29 11:50:20;;;;;;;3.55;3.05;;;21.30;22.00;;;;;;4880284;29;20213;-70
2023/05/29 11:52:47;;;;;;;4.75;2.80;;;21.30;22.80;;;;;;4880703;29;20242;-69
2023/05/29 11:55:14;;;;;;;2.50;2.40;;;21.40;24.10;;;;;;4879547;29;20219;-69
2023/05/29 11:57:41;;;;;;;4.65;2.88;;;21.40;24.40;;;;;;4880258;29;20213;-69
2023/05/29 12:00:10;;;;;;;4.15;3.00;;;21.40;24.20;;;;;;4880031;29;20260;-68
2023/05/29 12:02:38;;;;;;;3.53;3.13;;;21.50;24.60;;;;;;4879809;29;20536;-69
2023/05/29 12:05:07;;;;;;;2.90;2.63;;;21.60;24.90;;;;;;4879800;29;20257;-69
2023/05/29 12:07:34;;;;;;;3.15;2.85;;;21.60;24.00;;;;;;4879937;29;20210;-69
2023/05/29 12:10:10;;;;;;;3.38;3.17;;;21.70;24.60;;;;;;4879890;29;20206;-70
2023/05/29 12:12:37;;;;;;;4.55;2.60;;;21.80;22.80;;;;;;4879866;29;20197;-69
2023/05/29 12:15:06;;;;;;;5.90;2.33;;;21.90;22.10;;;;;;4879355;29;20702;-69
2023/05/29 12:17:33;;;;;;;2.85;2.60;;;22.00;21.80;;;;;;4879461;29;20565;-69
2023/05/29 12:20:01;;;;;;;3.38;2.65;;;21.90;22.40;;;;;;4879482;29;20688;-69
2023/05/29 12:22:34;;;;;;;2.65;2.42;;;21.90;22.50;;;;;;4879927;29;20194;-69
2023/05/29 12:25:06;;;;;;;4.72;3.10;;;21.80;22.00;;;;;;4879853;29;20272;-69
2023/05/29 12:27:37;;;;;;;2.30;2.10;;;21.80;22.10;;;;;;4879506;29;20651;-69
2023/05/29 12:30:05;;;;;;;2.45;2.00;;;21.90;22.50;;;;;;4879790;29;20190;-69
2023/05/29 12:32:36;;;;;;;2.88;2.67;;;21.90;23.20;;;;;;4879809;29;20210;-69
2023/05/29 12:35:12;;;;;;;2.90;2.45;;;22.00;23.10;;;;;;4879737;29;20233;-69
2023/05/29 12:37:43;;;;;;;3.30;3.00;;;22.10;23.20;;;;;;4880022;29;20194;-70
2023/05/29 12:40:11;;;;;;;3.70;2.75;;;22.00;23.30;;;;;;4879886;29;20221;-70
2023/05/29 12:42:38;;;;;;;4.32;3.40;;;22.00;23.40;;;;;;4879783;29;20262;-69
2023/05/29 12:45:07;;;;;;;3.03;2.60;;;22.00;23.70;;;;;;4879632;29;20614;-69
2023/05/29 12:47:34;;;;;;;3.60;2.78;;;21.90;23.90;;;;;;4879388;29;20213;-69
2023/05/29 12:50:16;;;;;;;3.17;2.55;;;21.90;24.90;;;;;;4879458;29;20210;-69
2023/05/29 12:52:42;;;;;;;3.60;2.75;;;22.00;24.00;;;;;;4879373;29;20197;-69
2023/05/29 12:55:09;;;;;;;4.25;2.92;;;21.90;23.30;;;;;;4879377;29;20222;-69
2023/05/29 12:57:36;;;;;;;3.75;2.20;;;21.90;23.50;;;;;;4879978;29;20218;-69
2023/05/29 13:00:04;;;;;;;4.32;2.55;;;22.00;22.60;;;;;;4879587;29;20206;-69
2023/05/29 13:02:30;;;;;;;2.45;2.33;;;22.00;22.80;;;;;;4879872;29;20206;-70
2023/05/29 13:04:57;;;;;;;2.60;2.40;;;22.00;22.80;;;;;;4879323;29;20241;-71
2023/05/29 13:07:27;;;;;;;3.08;2.72;;;22.10;22.90;;;;;;4882171;29;20214;-70
2023/05/29 13:09:54;;;;;;;3.47;3.10;;;22.10;23.00;;;;;;4883212;29;20190;-70
2023/05/29 13:12:21;;;;;;;2.47;2.28;;;22.20;22.30;;;;;;4883243;29;20289;-69
2023/05/29 13:14:48;;;;;;;2.42;2.22;;;22.20;22.20;;;;;;4882789;29;20710;-69
2023/05/29 13:17:15;;;;;;;3.15;2.78;;;22.20;22.30;;;;;;4883002;29;20207;-70
2023/05/29 13:19:41;;;;;;;3.08;2.80;;;22.20;21.00;;;;;;4882642;29;20690;-70
2023/05/29 13:22:08;;;;;;;4.07;2.63;;;22.30;21.40;;;;;;4883110;29;20301;-70
2023/05/29 13:24:36;;;;;;;3.10;2.60;;;22.30;20.90;;;;;;4882983;29;20248;-69
2023/05/29 13:27:03;;;;;;;3.72;3.03;;;22.30;20.90;;;;;;4882518;29;20217;-70
2023/05/29 13:29:30;;;;;;;3.00;2.70;;;22.30;21.20;;;;;;4882828;29;20233;-70
2023/05/29 13:31:56;;;;;;;3.78;3.00;;;22.30;22.00;;;;;;4882442;29;20674;-69
2023/05/29 13:34:25;;;;;;;3.58;2.97;;;22.30;21.90;;;;;;4882732;29;20229;-68
2023/05/29 13:36:52;;;;;;;5.55;2.97;;;22.30;22.20;;;;;;4882532;29;20265;-69
2023/05/29 13:39:18;;;;;;;3.13;2.83;;;22.40;22.40;;;;;;4882521;29;20209;-69
2023/05/29 13:41:46;;;;;;;3.15;2.95;;;22.30;22.30;;;;;;4882162;29;20678;-68
2023/05/29 13:44:13;;;;;;;5.20;2.72;;;22.30;23.00;;;;;;4882482;29;20191;-69
2023/05/29 13:46:40;;;;;;;3.08;2.70;;;22.40;22.80;;;;;;4882062;29;20234;-69
2023/05/29 13:49:07;;;;;;;2.92;2.60;;;22.40;23.00;;;;;;4882018;29;20648;-69
2023/05/29 13:51:35;;;;;;;2.65;2.53;;;22.50;23.10;;;;;;4882199;29;20234;-69
2023/05/29 13:54:02;;;;;;;4.95;3.05;;;22.50;22.70;;;;;;4882074;29;20206;-68
2023/05/29 13:56:29;;;;;;;3.08;2.80;;;22.50;23.20;;;;;;4882037;29;20236;-69
2023/05/29 13:58:59;;;;;;;2.85;2.60;;;22.50;22.70;;;;;;4882381;29;20215;-69
2023/05/29 14:01:26;;;;;;;3.28;2.83;;;22.40;23.10;;;;;;4882095;29;20190;-69
2023/05/29 14:03:52;;;;;;;5.47;3.22;;;22.40;23.10;;;;;;4882352;29;20214;-69
2023/05/29 14:06:19;;;;;;;2.50;2.33;;;22.40;23.50;;;;;;4882888;29;20234;-69
2023/05/29 14:08:46;;;;;;;2.78;2.58;;;22.40;24.30;;;;;;4881882;29;20210;-70
2023/05/29 14:11:12;;;;;;;2.83;2.60;;;22.30;23.80;;;;;;4881920;29;20221;-70
2023/05/29 14:13:40;;;;;;;2.88;2.53;;;22.30;23.60;;;;;;4885577;29;20684;-70
2023/05/29 14:16:08;;;;;;;4.15;2.45;;;22.40;23.60;;;;;;4886068;29;20256;-70
2023/05/29 14:18:35;;;;;;;3.42;3.17;;;22.30;22.70;;;;;;4885541;29;20282;-67
2023/05/29 14:21:02;;;;;;;4.05;3.05;;;22.40;22.30;;;;;;4885027;29;20216;-67
2023/05/29 14:23:30;;;;;;;5.00;3.22;;;22.40;22.40;;;;;;4885635;29;20305;-66
2023/05/29 14:25:57;;;;;;;5.72;3.25;;;22.40;22.40;;;;;;4885873;29;20644;-65
2023/05/29 14:28:24;;;;;;;;;;;22.40;22.90;;;;;;4888689;29;20059;-64
2023/05/29 14:30:51;;;;;;;;;;;22.50;22.40;;;;;;4888157;29;19930;-66
2023/05/29 14:33:19;;;;;;;;;;;22.50;21.10;;;;;;4888381;29;20435;-66
2023/05/29 14:35:46;;;;;;;;;;;22.50;21.80;;;;;;4886705;29;19923;-66
2023/05/29 14:38:13;;;;;;;;;;;22.60;21.30;;;;;;4888303;29;20291;-67
2023/05/29 14:40:40;;;;;;;;;;;22.60;20.50;;;;;;4888255;29;19931;-65
2023/05/29 14:43:07;;;;;;;;;;;22.50;20.70;;;;;;4887576;29;19931;-66
2023/05/29 14:45:33;;;;;;;;;;;22.50;21.40;;;;;;4887587;29;19924;-66
2023/05/29 14:48:00;;;;;;;;;;;22.50;21.50;;;;;;4887450;29;19963;-64
2023/05/29 14:50:29;;;;;;;;;;;22.50;20.70;;;;;;4888374;29;20021;-67
2023/05/29 14:52:55;;;;;;;;;;;22.50;21.00;;;;;;4887081;29;19935;-65
2023/05/29 14:55:22;;;;;;;;;;;22.50;20.70;;;;;;4886899;29;19923;-65
2023/05/29 14:57:50;;;;;;;3.72;3.42;;;22.50;20.80;;;;;;4885692;29;20436;-66
2023/05/29 15:00:17;;;;;;;3.78;3.05;;;22.40;20.60;;;;;;4886923;29;20217;-67
2023/05/29 15:02:45;;;;;;;5.78;3.20;;;22.40;21.40;;;;;;4886538;29;20217;-67
2023/05/29 15:05:12;;;;;;;3.50;3.10;;;22.40;21.00;;;;;;4885149;29;20265;-65
2023/05/29 15:07:41;;;;;;;3.70;3.28;;;22.40;21.00;;;;;;4885372;29;20262;-66
2023/05/29 15:10:08;;;;;;;5.00;3.80;;;22.40;20.20;;;;;;4886267;29;20599;-67
2023/05/29 15:12:36;;;;;;;3.95;3.65;;;22.40;19.90;;;;;;4884969;29;20194;-66
2023/05/29 15:15:03;;;;;;;4.35;3.72;;;22.40;19.80;;;;;;4881015;29;20261;-66
2023/05/29 15:17:30;;;;;;;3.88;3.50;;;22.40;19.50;;;;;;4880638;29;20190;-66
2023/05/29 15:19:57;;;;;;;4.05;3.65;;;22.40;19.70;;;;;;4880859;29;20194;-65
2023/05/29 15:22:24;;;;;;;4.38;3.50;;;22.40;19.70;;;;;;4880833;29;20243;-66
2023/05/29 15:24:52;;;;;;;4.10;3.55;;;22.30;20.00;;;;;;4880129;29;20593;-67
2023/05/29 15:27:18;;;;;;;3.35;3.05;;;22.30;20.40;;;;;;4880479;29;20233;-66
2023/05/29 15:29:45;;;;;;;3.58;3.28;;;22.30;20.40;;;;;;4879651;29;20209;-67
2023/05/29 15:32:12;;;;;;;4.18;3.60;;;22.30;20.60;;;;;;4880450;29;20206;-66
2023/05/29 15:34:40;;;;;;;4.32;3.30;;;22.40;20.20;;;;;;4880638;29;20260;-66
2023/05/29 15:37:07;;;;;;;5.10;3.10;;;22.40;20.50;;;;;;4880430;29;20258;-66
2023/05/29 15:39:33;;;;;;;3.88;3.35;;;22.40;19.70;;;;;;4880359;29;20604;-67
2023/05/29 15:42:01;;;;;;;6.72;3.33;;;22.30;18.60;;;;;;4880284;29;20202;-66
2023/05/29 15:44:28;;;;;;;3.65;3.25;;;22.30;18.70;;;;;;4880246;29;20309;-66
2023/05/29 15:46:55;;;;;;;3.85;3.55;;;22.30;19.10;;;;;;4880022;29;20246;-66
2023/05/29 15:49:21;;;;;;;5.45;3.72;;;22.30;19.00;;;;;;4880456;29;20631;-66
2023/05/29 15:51:48;;;;;;;3.70;3.40;;;22.20;18.80;;;;;;4880358;29;20217;-66
2023/05/29 15:54:15;;;;;;;3.88;3.58;;;22.20;18.90;;;;;;4880715;29;20304;-66
2023/05/29 15:56:42;;;;;;;4.82;3.20;;;22.20;19.30;;;;;;4880155;29;20205;-66
2023/05/29 15:59:10;;;;;;;5.78;3.38;;;22.20;19.70;;;;;;4880121;29;20206;-66
2023/05/29 16:01:37;;;;;;;3.78;3.47;;;22.10;19.70;;;;;;4880015;29;20357;-66
2023/05/29 16:04:03;;;;;;;4.25;3.53;;;22.10;19.80;;;;;;4879921;29;20209;-66
2023/05/29 16:06:32;;;;;;;3.55;3.28;;;22.10;19.80;;;;;;4880150;29;20601;-65
2023/05/29 16:08:58;;;;;;;5.53;4.00;;;22.10;19.80;;;;;;4879836;29;20194;-65
2023/05/29 16:11:25;;;;;;;4.88;3.63;;;22.10;20.60;;;;;;4880374;29;20210;-66
2023/05/29 16:13:52;;;;;;;4.07;3.72;;;22.10;21.10;;;;;;4880097;29;20206;-66
2023/05/29 16:16:20;;;;;;;4.07;3.67;;;22.00;22.00;;;;;;4880015;29;20249;-66
2023/05/29 16:18:47;;;;;;;2.78;2.58;;;22.00;21.60;;;;;;4880052;29;20206;-66
2023/05/29 16:21:14;;;;;;;3.75;3.45;;;22.00;22.00;;;;;;4879886;29;20206;-65
2023/05/29 16:23:40;;;;;;;5.30;3.40;;;21.90;21.50;;;;;;4879992;29;20210;-67
2023/05/29 16:26:07;;;;;;;2.90;2.70;;;21.90;21.70;;;;;;4879662;29;20240;-67
2023/05/29 16:28:34;;;;;;;3.10;2.88;;;21.90;22.00;;;;;;4879835;29;20213;-67
2023/05/29 16:31:00;;;;;;;4.82;3.63;;;21.90;21.70;;;;;;4879748;29;20198;-66
2023/05/29 16:33:29;;;;;;;5.00;3.80;;;21.80;21.10;;;;;;4880335;29;20197;-66
2023/05/29 16:35:55;;;;;;;4.63;4.13;;;21.80;20.60;;;;;;4880635;29;20222;-67
2023/05/29 16:38:22;;;;;;;4.15;3.63;;;21.80;19.90;;;;;;4881625;29;20318;-67
2023/05/29 16:40:49;;;;;;;3.97;3.42;;;21.80;20.60;;;;;;4880609;29;20206;-67
2023/05/29 16:43:15;;;;;;;3.78;3.40;;;21.70;20.60;;;;;;4883647;29;20293;-67
2023/05/29 16:45:42;;;;;;;3.40;3.10;;;21.70;20.90;;;;;;4883503;29;20237;-67
2023/05/29 16:48:09;;;;;;;3.85;3.50;;;21.60;20.70;;;;;;4883281;29;20236;-67
2023/05/29 16:50:37;;;;;;;3.63;2.85;;;21.60;21.50;;;;;;4883805;29;20214;-70
2023/05/29 16:53:03;;;;;;;3.88;3.33;;;21.50;21.70;;;;;;4883301;29;20210;-70
2023/05/29 16:55:30;;;;;;;5.25;3.72;;;21.50;21.80;;;;;;4883323;29;20238;-70
2023/05/29 16:57:57;;;;;;;4.38;3.97;;;21.40;21.70;;;;;;4882863;29;20606;-70
2023/05/29 17:00:24;;;;;;;3.47;3.28;;;21.40;22.00;;;;;;4883134;29;20191;-70
2023/05/29 17:02:51;;;;;;;3.50;3.30;;;21.40;22.10;;;;;;4883212;29;20205;-70
2023/05/29 17:05:18;;;;;;;3.72;3.00;;;21.40;22.30;;;;;;4883416;29;20262;-70
2023/05/29 17:07:46;;;;;;;4.47;3.38;;;21.40;22.20;;;;;;4883153;29;20233;-70
2023/05/29 17:10:12;;;;;;;3.65;3.28;;;21.30;22.40;;;;;;4883696;29;20190;-70
2023/05/29 17:12:39;;;;;;;4.28;3.17;;;21.30;22.00;;;;;;4883118;29;20666;-66
2023/05/29 17:15:07;;;;;;;4.45;3.30;;;21.20;21.90;;;;;;4883281;29;20233;-66
2023/05/29 17:17:34;;;;;;;3.00;2.78;;;21.20;22.00;;;;;;4883158;29;20195;-66
2023/05/29 17:20:00;;;;;;;4.47;3.50;;;21.20;21.90;;;;;;4882893;29;20210;-66
2023/05/29 17:22:27;;;;;;;6.03;3.63;;;21.10;22.00;;;;;;4882967;29;20233;-65
2023/05/29 17:24:56;;;;;;;3.38;3.10;;;21.10;22.30;;;;;;4882864;29;20585;-65
2023/05/29 17:27:23;;;;;;;3.75;3.20;;;21.00;22.20;;;;;;4882902;29;20232;-65
2023/05/29 17:29:50;;;;;;;3.28;3.05;;;21.00;22.30;;;;;;4883058;29;20206;-65
2023/05/29 17:32:17;;;;;;;3.58;3.22;;;21.00;22.20;;;;;;4883111;29;20222;-65
2023/05/29 17:34:43;;;;;;;4.43;3.53;;;20.90;21.70;;;;;;4882756;29;20593;-66
2023/05/29 17:37:10;;;;;;;3.55;3.25;;;20.90;21.80;;;;;;4882762;29;20213;-66
2023/05/29 17:39:37;;;;;;;4.80;3.38;;;20.90;22.00;;;;;;4882606;29;20233;-67
2023/05/29 17:42:07;;;;;;;3.35;3.13;;;20.80;21.90;;;;;;4882909;29;20207;-66
2023/05/29 17:44:33;;;;;;;2.83;2.63;;;20.80;22.10;;;;;;4882158;29;20633;-67
2023/05/29 17:47:00;;;;;;;4.05;3.60;;;20.80;22.10;;;;;;4882118;29;20230;-65
2023/05/29 17:49:27;;;;;;;3.45;3.08;;;20.70;21.80;;;;;;4882451;29;20206;-65
2023/05/29 17:51:53;;;;;;;4.50;3.85;;;20.70;22.00;;;;;;4882624;29;20219;-65
2023/05/29 17:54:20;;;;;;;3.38;3.15;;;20.70;22.00;;;;;;4881517;29;20206;-68
2023/05/29 17:56:47;;;;;;;3.03;2.83;;;20.60;22.00;;;;;;4882558;29;20202;-69
2023/05/29 17:59:15;;;;;;;3.28;2.97;;;20.50;22.10;;;;;;4882580;29;20238;-69
2023/05/29 18:01:42;;;;;;;3.45;3.15;;;20.50;22.00;;;;;;4882350;29;20214;-68
2023/05/29 18:04:08;;;;;;;2.92;2.72;;;20.40;22.00;;;;;;4882252;29;20211;-69
2023/05/29 18:06:36;;;;;;;3.63;3.33;;;20.40;21.60;;;;;;4882292;29;20253;-70
2023/05/29 18:09:03;;;;;;;3.47;3.13;;;20.30;21.40;;;;;;4882315;29;20236;-69
2023/05/29 18:11:30;;;;;;;3.63;3.33;;;20.30;21.40;;;;;;4882591;29;20206;-69
2023/05/29 18:13:56;;;;;;;3.17;2.97;;;20.30;21.30;;;;;;4882050;29;20206;-70
2023/05/29 18:16:24;;;;;;;5.00;3.22;;;20.20;21.40;;;;;;4881782;29;20229;-66
2023/05/29 18:18:51;;;;;;;3.35;3.05;;;20.20;21.40;;;;;;4881974;29;20210;-66
2023/05/29 18:21:18;;;;;;;5.63;3.75;;;20.10;21.40;;;;;;4881544;29;20239;-67
2023/05/29 18:23:45;;;;;;;4.00;3.20;;;20.10;21.10;;;;;;4881408;29;20678;-65
2023/05/29 18:26:12;;;;;;;3.70;3.25;;;20.10;21.40;;;;;;4881357;29;20234;-66
2023/05/29 18:28:39;;;;;;;4.30;3.42;;;20.00;21.50;;;;;;4881891;29;20213;-66
2023/05/29 18:31:06;;;;;;;3.22;2.92;;;20.00;21.80;;;;;;4881670;29;20237;-66
2023/05/29 18:33:34;;;;;;;2.80;2.60;;;19.90;22.30;;;;;;4881592;29;20206;-66
2023/05/29 18:36:00;;;;;;;3.60;3.30;;;19.80;22.70;;;;;;4881715;29;20253;-66
2023/05/29 18:38:27;;;;;;;3.08;2.80;;;19.70;22.60;;;;;;4881703;29;20566;-67
2023/05/29 18:40:54;;;;;;;3.00;2.80;;;19.60;22.70;;;;;;4881705;29;20214;-66
2023/05/29 18:43:21;;;;;;;3.42;3.13;;;19.50;23.20;;;;;;4881635;29;20238;-67
2023/05/29 18:45:48;;;;;;;2.90;2.70;;;19.40;22.70;;;;;;4881663;29;20254;-68
2023/05/29 18:48:14;;;;;;;4.05;3.22;;;19.30;23.00;;;;;;4881190;29;20702;-67
2023/05/29 18:50:42;;;;;;;3.28;2.95;;;19.30;22.70;;;;;;4881416;29;20221;-68
2023/05/29 18:53:09;;;;;;;3.25;3.00;;;19.20;23.00;;;;;;4881355;29;20206;-67
2023/05/29 18:55:36;;;;;;;3.35;3.05;;;19.20;22.90;;;;;;4881317;29;20258;-66
2023/05/29 18:58:03;;;;;;;2.88;2.67;;;19.00;23.00;;;;;;4881973;29;20288;-68
2023/05/29 19:00:30;;;;;;;3.17;2.92;;;18.90;23.50;;;;;;4881379;29;20213;-69
2023/05/29 19:02:58;;;;;;;3.33;3.00;;;18.80;23.50;;;;;;4881894;29;20674;-70
2023/05/29 19:05:25;;;;;;;2.90;2.70;;;18.80;23.70;;;;;;4881626;29;20241;-69
2023/05/29 19:07:54;;;;;;;2.58;2.47;;;18.60;24.10;;;;;;4880785;29;20579;-70
2023/05/29 19:10:21;;;;;;;2.47;2.28;;;18.40;24.70;;;;;;4881598;29;20301;-70
2023/05/29 19:12:48;;;;;;;2.28;2.17;;;18.20;25.50;;;;;;4881469;29;20671;-71
2023/05/29 19:15:15;;;;;;;2.03;1.92;;;18.00;26.60;;;;;;4881477;29;20252;-71
2023/05/29 19:17:42;;;;;;;2.25;2.15;;;17.70;28.20;;;;;;4881234;29;20206;-71
2023/05/29 19:20:10;;;;;;;2.10;2.00;;;17.50;29.60;;;;;;4881094;29;20206;-70
2023/05/29 19:22:37;;;;;;;2.25;2.15;;;17.20;30.60;;;;;;4881632;29;20544;-69
2023/05/29 19:25:06;;;;;;;2.28;2.10;;;16.90;32.30;;;;;;4880830;29;20233;-70
2023/05/29 19:27:33;;;;;;;2.38;2.28;;;16.70;33.70;;;;;;4880499;29;20706;-71
2023/05/29 19:30:00;;;;;;;2.03;2.03;;;16.40;34.60;;;;;;4881034;29;20210;-71
2023/05/29 19:32:27;;;;;;;2.38;2.17;;;16.20;36.30;;;;;;4880785;29;20675;-70
2023/05/29 19:34:54;;;;;;;2.33;2.15;;;16.00;37.40;;;;;;4880725;29;20234;-71
2023/05/29 19:37:21;;;;;;;1.88;1.77;;;15.80;38.70;;;;;;4880801;29;20309;-69
2023/05/29 19:39:51;;;;;;;2.10;2.00;;;15.60;39.70;;;;;;4881045;29;20206;-71
2023/05/29 19:42:21;;;;;;;2.33;2.13;;;15.40;41.60;;;;;;4880803;29;20244;-72
2023/05/29 19:44:48;;;;;;;1.60;1.50;;;15.20;42.90;;;;;;4880732;29;20234;-72